Beaufort, NC (28516)

7:28 AM EDT on September 22, 2014 (GMT -0400)
Smith | Change Station
CLOSE
Current Station
Airport
Location: Beaufort,
Elevation: 10 ft
Nearby Weather Stations
Active Advisory: Beach Hazard Statement

Elev 10 ft 34.73 °N, 76.66 °W | Updated 30 minutes ago

Clear
Clear
75 °F
Feels Like 75 °F
N
8
Wind Variable Wind from West

Today
High -- | Low -- °F
--% Chance of Precip.
Yesterday
High -- | Low -- °F
Precip. -- in
6:54 AM 7:03 PM
Waning Crescent, 3% visible
Pressure 29.94 in
Visibility 10.0 miles
Clouds Clear
Dew Point 66 °F
Humidity 73%
Rainfall 0.00 in
Snow Depth Not available.
UV 0 out of 12
Pollen 5.60 out of 12
Air Quality Not available.
Flu Activity Not available.
METAR KMRH 221058Z AUTO 27007KT 10SM CLR 24/19 A2994 RMK AO2 SLP137 T02390189 TSNO

More Conditions Fewer Conditions

Pressure 29.94 in
Visibility 10.0 miles
Clouds Clear
Dew Point 66 °F
Humidity 73%
Rainfall 0.00 in
Snow Depth Not available.
UV 0 out of 12
Pollen 5.60 out of 12
Air Quality Not available.
Flu Activity Not available.
METAR KMRH 221058Z AUTO 27007KT 10SM CLR 24/19 A2994 RMK AO2 SLP137 T02390189 TSNO

More Conditions Fewer Conditions

10-Day Weather Forecast

Almanac

Astronomy

Sep. 22, 2014 Rise Set
Actual Time 6:54 AM EDT 7:03 PM EDT
Civil Twilight 6:29 AM EDT 7:28 PM EDT
Nautical Twilight 6:00 AM EDT 7:57 PM EDT
Astronomical Twilight 5:30 AM EDT 8:27 PM EDT
Moon 5:23 AM EDT 6:08 PM EDT
Length of Visible Light 12h 59m
Length of Day
12h 08m
Tomorrow will be 2m 9s shorter.
Waning Crescent, 3% of the Moon is Illuminated
Today
Waning Crescent
Sep 24
New
Oct 1
First Quarter
Oct 8
Full
Oct 15
Last Quarter

Today's Extremes

State Highs State Lows

Community

WunderPhotos

Upload Photos

1,755,409 photos uploaded!

Nearby

Snow Depth

Station Depth Elevation
No new snow has been reported.

Earthquake Activity

City Distance Mag. Time & Date
No recent earthquake activity has been reported nearby.
Minimum magnitude displayed is 2.5.

Coastal Water Temperatures

Place Temperature
Beaufort, NC 75.0 °F
Johnny Mercer Pier, Wrightsville Beach, NC 80.1 °F
Hatteras, NC 73.9 °F
Oregon Inlet Marina, NC 75.0 °F

Nearby Weather Stations